Time;durP1;ratioP1;P1;durP2;ratioP2;P2;SDS_P1;SDS_P2;PMS_P1;PMS_P2;Temp;Humidity;BMP_temperature;BMP_pressure;BME280_temperature;BME280_humidity;BME280_pressure;Samples;Min_cycle;Max_cycle;Signal;HPM_P1;HPM_P2
2022/08/08 00:01:41;;;;;;;5.32;3.70;;;17.10;33.80;;;;;;5041523;28;20387;-77
2022/08/08 00:04:21;;;;;;;5.30;3.60;;;17.00;34.10;;;;;;5043853;28;20391;-78
2022/08/08 00:07:31;;;;;;;6.20;3.70;;;17.00;34.20;;;;;;5050263;28;20386;-78
2022/08/08 00:10:12;;;;;;;7.72;4.18;;;16.90;34.70;;;;;;5040224;28;20441;-77
2022/08/08 00:12:54;;;;;;;5.70;3.90;;;16.90;35.30;;;;;;5038728;28;20437;-77
2022/08/08 00:15:35;;;;;;;4.70;3.55;;;16.90;35.90;;;;;;5040254;28;20426;-78
2022/08/08 00:18:10;;;;;;;7.32;4.00;;;16.70;37.00;;;;;;5041475;28;20387;-78
2022/08/08 00:20:50;;;;;;;7.47;4.07;;;16.70;38.00;;;;;;5039177;28;20383;-78
2022/08/08 00:23:39;;;;;;;5.63;4.28;;;16.70;38.80;;;;;;5041348;28;20396;-78
2022/08/08 00:26:07;;;;;;;5.40;3.90;;;16.70;39.40;;;;;;5041374;28;20406;-78
2022/08/08 00:28:45;;;;;;;5.90;3.80;;;16.60;39.90;;;;;;5043109;28;20474;-78
2022/08/08 00:31:15;;;;;;;5.65;4.10;;;16.60;40.70;;;;;;5045057;28;20406;-78
2022/08/08 00:33:49;;;;;;;5.85;4.22;;;16.60;40.60;;;;;;5045980;28;20388;-79
2022/08/08 00:36:26;;;;;;;5.25;4.20;;;16.40;41.70;;;;;;5045046;28;20414;-78
2022/08/08 00:39:12;;;;;;;6.10;4.25;;;16.40;42.00;;;;;;5043198;28;20379;-78
2022/08/08 00:41:55;;;;;;;7.45;4.22;;;16.40;42.30;;;;;;5040909;28;20405;-79
2022/08/08 00:44:32;;;;;;;6.25;4.10;;;16.20;42.20;;;;;;5045184;28;20403;-77
2022/08/08 00:47:43;;;;;;;6.78;4.10;;;16.30;41.90;;;;;;5050620;28;20383;-77
2022/08/08 00:50:30;;;;;;;8.52;4.00;;;16.20;42.30;;;;;;5042073;28;20390;-78
2022/08/08 00:53:11;;;;;;;5.75;4.03;;;16.20;42.50;;;;;;5041305;28;20399;-79
2022/08/08 00:56:11;;;;;;;8.95;3.97;;;16.20;42.40;;;;;;5048555;28;20990;-80
2022/08/08 00:58:46;;;;;;;5.97;4.68;;;16.20;41.90;;;;;;5046554;28;20383;-79
2022/08/08 01:01:13;;;;;;;6.18;4.30;;;16.10;42.20;;;;;;5056911;28;20399;-79
2022/08/08 01:03:39;;;;;;;6.70;4.70;;;16.00;42.90;;;;;;5063153;28;20385;-78
2022/08/08 01:06:42;;;;;;;7.40;4.37;;;16.00;43.20;;;;;;5060656;28;20407;-77
2022/08/08 01:09:26;;;;;;;7.00;4.50;;;15.80;44.40;;;;;;5045310;28;20497;-77
2022/08/08 01:12:10;;;;;;;7.18;4.30;;;15.80;45.10;;;;;;5043233;28;20402;-77
2022/08/08 01:15:10;;;;;;;6.38;4.13;;;15.90;45.30;;;;;;5044895;28;20389;-78
2022/08/08 01:18:08;;;;;;;5.47;4.10;;;15.80;45.90;;;;;;5047588;28;20760;-77
2022/08/08 01:20:52;;;;;;;8.32;4.30;;;15.70;47.10;;;;;;5045839;28;20885;-78
2022/08/08 01:23:38;;;;;;;7.25;4.72;;;15.80;47.20;;;;;;5044287;28;20414;-78
2022/08/08 01:26:18;;;;;;;8.55;5.18;;;15.80;46.70;;;;;;5043828;28;20386;-79
2022/08/08 01:28:46;;;;;;;6.53;4.50;;;15.80;46.60;;;;;;5044914;28;20898;-79
2022/08/08 01:31:39;;;;;;;6.78;4.65;;;15.80;46.60;;;;;;5043647;28;20442;-77
2022/08/08 01:34:11;;;;;;;7.35;4.75;;;15.70;47.40;;;;;;5043773;28;20387;-77
2022/08/08 01:36:55;;;;;;;7.85;4.75;;;15.50;48.90;;;;;;5043496;28;20421;-78
2022/08/08 01:39:26;;;;;;;6.50;4.30;;;15.60;49.00;;;;;;5045028;28;20436;-78
2022/08/08 01:42:06;;;;;;;7.00;4.90;;;15.50;48.90;;;;;;5045380;28;20557;-78
2022/08/08 01:44:38;;;;;;;6.47;4.90;;;15.40;50.20;;;;;;5043214;28;20425;-77
2022/08/08 01:47:29;;;;;;;6.50;4.50;;;15.50;50.00;;;;;;5041871;28;20387;-76
2022/08/08 01:50:32;;;;;;;8.40;5.15;;;15.60;49.40;;;;;;5043611;28;20390;-77
2022/08/08 01:53:02;;;;;;;7.15;4.57;;;15.50;49.60;;;;;;5042831;28;20795;-78
2022/08/08 01:55:45;;;;;;;7.45;5.05;;;15.40;50.90;;;;;;5043980;28;20759;-78
2022/08/08 01:58:27;;;;;;;6.80;5.15;;;15.30;51.60;;;;;;5042728;28;20391;-77
2022/08/08 02:01:05;;;;;;;8.65;5.05;;;15.30;52.50;;;;;;5042585;28;20379;-77
2022/08/08 02:03:31;;;;;;;9.30;5.10;;;15.40;52.00;;;;;;5043944;28;20462;-77
2022/08/08 02:06:25;;;;;;;8.30;5.60;;;15.40;51.50;;;;;;5069527;23;20461;-75
2022/08/08 02:09:04;;;;;;;9.40;5.50;;;15.40;51.90;;;;;;5062797;28;20388;-76
2022/08/08 02:11:38;;;;;;;9.07;5.03;;;15.40;51.90;;;;;;5064363;28;20445;-77
2022/08/08 02:14:32;;;;;;;7.88;5.57;;;15.40;52.30;;;;;;5061778;28;20402;-76
2022/08/08 02:17:15;;;;;;;16.27;5.63;;;15.30;52.80;;;;;;5064683;28;20407;-76
2022/08/08 02:20:16;;;;;;;8.13;5.47;;;15.30;53.50;;;;;;5061316;28;20830;-76
2022/08/08 02:23:03;;;;;;;8.75;5.97;;;15.30;53.90;;;;;;5066074;28;20401;-77
2022/08/08 02:26:16;;;;;;;7.13;5.83;;;15.20;54.30;;;;;;5062236;28;20381;-77
2022/08/08 02:29:09;;;;;;;10.60;5.80;;;15.10;55.70;;;;;;5036386;28;20716;-77
2022/08/08 02:31:53;;;;;;;8.38;5.80;;;15.00;57.20;;;;;;5036774;28;20799;-77
2022/08/08 02:34:47;;;;;;;9.50;6.10;;;15.00;56.90;;;;;;5055308;28;20758;-77
2022/08/08 02:38:01;;;;;;;7.65;5.85;;;15.10;56.70;;;;;;5058977;28;20385;-77
2022/08/08 02:40:44;;;;;;;12.57;6.75;;;15.10;56.30;;;;;;5060059;28;20370;-77
2022/08/08 02:44:00;;;;;;;10.60;5.80;;;15.10;56.80;;;;;;5057336;28;20742;-76
2022/08/08 02:46:37;;;;;;;9.00;6.15;;;15.00;57.40;;;;;;5042148;28;20486;-77
2022/08/08 02:49:31;;;;;;;7.40;5.85;;;15.00;57.40;;;;;;5033904;28;20414;-76
2022/08/08 02:52:12;;;;;;;8.82;6.25;;;14.90;59.00;;;;;;5052540;28;20516;-77
2022/08/08 02:55:08;;;;;;;7.85;6.00;;;14.90;59.30;;;;;;5056016;28;20389;-77
2022/08/08 02:58:11;;;;;;;11.02;6.82;;;14.90;59.00;;;;;;5059573;28;20378;-77
2022/08/08 03:01:14;;;;;;;9.65;6.45;;;14.90;59.30;;;;;;5056236;28;20378;-76
2022/08/08 03:04:38;;;;;;;9.07;6.63;;;15.00;58.50;;;;;;5058633;28;20386;-77
2022/08/08 03:07:33;;;;;;;8.87;6.70;;;14.90;59.00;;;;;;5056259;28;20401;-78
2022/08/08 03:09:58;;;;;;;11.38;6.90;;;14.90;58.90;;;;;;5055629;28;20382;-77
2022/08/08 03:12:40;;;;;;;9.43;7.00;;;14.80;59.70;;;;;;5055394;28;20464;-76
2022/08/08 03:15:23;;;;;;;10.73;6.70;;;14.80;59.90;;;;;;5056834;28;20417;-75
2022/08/08 03:17:56;;;;;;;10.10;6.60;;;14.90;59.90;;;;;;5062234;28;20385;-77
2022/08/08 03:20:21;;;;;;;11.05;6.90;;;14.90;60.20;;;;;;5074434;28;20396;-76
2022/08/08 03:22:49;;;;;;;11.10;6.83;;;14.80;61.40;;;;;;5056310;28;20483;-78
2022/08/08 03:25:17;;;;;;;12.65;7.00;;;14.80;61.10;;;;;;5055945;28;20704;-76
2022/08/08 03:27:49;;;;;;;9.63;6.50;;;14.80;61.00;;;;;;5056854;28;20801;-78
2022/08/08 03:30:15;;;;;;;10.93;7.32;;;14.80;60.30;;;;;;5057938;28;20381;-79
2022/08/08 03:35:27;;;;;;;11.95;7.40;;;14.80;60.40;;;;;;5058708;28;20389;-78
2022/08/08 03:37:53;;;;;;;12.18;7.30;;;14.80;59.90;;;;;;5056139;28;20427;-76
2022/08/08 03:40:22;;;;;;;13.65;8.45;;;14.70;60.10;;;;;;5052624;28;20385;-77
2022/08/08 03:42:48;;;;;;;14.57;8.60;;;14.70;59.60;;;;;;5051984;28;20472;-76
2022/08/08 03:45:18;;;;;;;14.27;7.73;;;14.70;60.80;;;;;;5052475;28;20396;-75
2022/08/08 03:47:54;;;;;;;13.30;7.97;;;14.70;60.50;;;;;;5051305;28;20427;-77
2022/08/08 03:50:20;;;;;;;19.42;8.10;;;14.70;60.70;;;;;;5064446;28;20385;-75
2022/08/08 03:52:46;;;;;;;14.40;8.40;;;14.60;61.00;;;;;;5064616;28;20459;-75
2022/08/08 03:55:17;;;;;;;13.67;8.43;;;14.60;61.40;;;;;;5069342;28;20377;-75
2022/08/08 03:57:55;;;;;;;16.92;8.50;;;14.60;62.20;;;;;;5053473;28;20476;-75
2022/08/08 04:00:25;;;;;;;13.93;7.90;;;14.60;62.60;;;;;;5052167;28;20378;-76
2022/08/08 04:02:56;;;;;;;12.85;8.00;;;14.60;62.90;;;;;;5050515;28;20397;-77
2022/08/08 04:05:28;;;;;;;11.40;7.90;;;14.50;63.10;;;;;;5055846;28;20422;-76
2022/08/08 04:07:54;;;;;;;11.60;7.60;;;14.60;62.60;;;;;;5064541;28;20514;-76
2022/08/08 04:10:19;;;;;;;15.40;8.48;;;14.60;62.90;;;;;;5063668;28;20447;-76
2022/08/08 04:12:45;;;;;;;18.83;8.68;;;14.60;62.60;;;;;;5054028;28;20409;-76
2022/08/08 04:15:11;;;;;;;15.00;8.80;;;14.60;62.00;;;;;;5052022;28;20381;-76
2022/08/08 04:17:37;;;;;;;10.65;8.02;;;14.60;62.50;;;;;;5051760;28;20389;-76
2022/08/08 04:20:03;;;;;;;12.50;8.27;;;14.60;63.10;;;;;;5050579;28;20968;-77
2022/08/08 04:22:29;;;;;;;12.65;8.20;;;14.60;63.10;;;;;;5052126;28;20393;-76
2022/08/08 04:24:55;;;;;;;14.80;8.00;;;14.50;63.40;;;;;;5050366;28;20470;-77
2022/08/08 04:27:20;;;;;;;14.10;8.02;;;14.50;64.50;;;;;;5050690;28;20390;-77
2022/08/08 04:29:47;;;;;;;12.02;7.63;;;14.50;64.50;;;;;;5051447;28;20476;-77
2022/08/08 04:32:15;;;;;;;17.50;8.53;;;14.60;63.40;;;;;;5051678;28;20785;-77
2022/08/08 04:34:41;;;;;;;15.13;8.50;;;14.60;63.60;;;;;;5050117;28;20882;-77
2022/08/08 04:37:07;;;;;;;12.10;8.13;;;14.60;63.30;;;;;;5050966;28;20409;-76
2022/08/08 04:39:33;;;;;;;17.08;9.40;;;14.60;63.10;;;;;;5051649;28;20494;-77
2022/08/08 04:41:59;;;;;;;14.15;8.65;;;14.70;62.90;;;;;;5050188;28;20429;-77
2022/08/08 04:44:24;;;;;;;17.20;8.73;;;14.60;63.60;;;;;;5051450;28;20866;-77
2022/08/08 04:46:50;;;;;;;17.17;8.57;;;14.70;63.00;;;;;;5051979;28;20389;-77
2022/08/08 04:49:16;;;;;;;17.90;9.00;;;14.70;63.00;;;;;;5065727;28;20381;-75
2022/08/08 04:51:41;;;;;;;11.60;8.10;;;14.70;62.70;;;;;;5055601;28;20416;-78
2022/08/08 04:54:07;;;;;;;14.35;9.07;;;14.70;62.40;;;;;;5053103;28;20400;-78
2022/08/08 04:56:33;;;;;;;19.23;8.88;;;14.70;62.70;;;;;;5051574;28;20377;-78
2022/08/08 04:58:58;;;;;;;13.63;8.45;;;14.70;62.50;;;;;;5050068;28;20424;-77
2022/08/08 05:01:24;;;;;;;12.40;8.10;;;14.80;62.40;;;;;;5049848;28;20393;-77
2022/08/08 05:03:49;;;;;;;17.13;8.43;;;14.70;62.20;;;;;;5051007;28;20389;-77
2022/08/08 05:06:15;;;;;;;13.03;8.83;;;14.70;62.40;;;;;;5051094;28;20401;-78
2022/08/08 05:08:41;;;;;;;14.83;8.23;;;14.80;62.40;;;;;;5050997;28;20377;-77
2022/08/08 05:11:07;;;;;;;13.80;8.13;;;14.80;62.10;;;;;;5050823;28;20401;-77
2022/08/08 05:13:32;;;;;;;13.88;8.80;;;14.80;61.90;;;;;;5051264;28;20411;-77
2022/08/08 05:15:58;;;;;;;13.93;8.13;;;14.90;61.70;;;;;;5052862;28;20389;-78
2022/08/08 05:18:24;;;;;;;14.02;8.73;;;15.00;60.80;;;;;;5050742;28;20373;-77
2022/08/08 05:20:49;;;;;;;13.88;8.30;;;15.10;59.90;;;;;;5050584;28;20382;-77
2022/08/08 05:23:15;;;;;;;16.00;8.50;;;15.20;59.00;;;;;;5051675;28;20416;-78
2022/08/08 05:25:41;;;;;;;15.00;8.50;;;15.20;58.50;;;;;;5051611;28;20385;-77
2022/08/08 05:28:06;;;;;;;18.80;9.00;;;15.30;57.60;;;;;;5052874;28;20696;-77
2022/08/08 05:30:32;;;;;;;12.90;8.77;;;15.40;57.00;;;;;;5051527;28;20414;-77
2022/08/08 05:32:58;;;;;;;17.38;9.07;;;15.40;56.00;;;;;;5051200;28;20783;-78
2022/08/08 05:35:25;;;;;;;12.68;7.63;;;15.50;54.90;;;;;;5049746;28;20389;-77
2022/08/08 05:37:59;;;;;;;17.13;8.65;;;15.50;56.20;;;;;;5061054;28;20750;-76
2022/08/08 05:40:26;;;;;;;16.17;8.85;;;15.70;54.30;;;;;;5063811;28;20563;-76
2022/08/08 05:42:55;;;;;;;12.82;8.40;;;15.90;52.00;;;;;;5061169;28;20476;-76
2022/08/08 05:45:22;;;;;;;15.93;7.95;;;15.80;53.00;;;;;;5056625;28;20750;-77
2022/08/08 05:47:49;;;;;;;13.55;8.43;;;16.00;50.20;;;;;;5055436;28;20397;-76
2022/08/08 05:50:16;;;;;;;12.63;8.20;;;16.10;49.60;;;;;;5056041;28;20381;-77
2022/08/08 05:52:42;;;;;;;11.90;7.70;;;16.20;48.90;;;;;;5059870;28;20416;-77
2022/08/08 05:55:09;;;;;;;13.02;8.30;;;16.30;49.00;;;;;;5058726;28;20385;-77
2022/08/08 05:57:37;;;;;;;14.88;8.00;;;16.40;48.20;;;;;;5056409;28;20385;-77
2022/08/08 06:00:06;;;;;;;15.93;8.73;;;16.40;48.60;;;;;;5057998;28;20377;-75
2022/08/08 06:05:19;;;;;;;12.05;8.20;;;16.60;46.60;;;;;;5055127;28;20416;-77
2022/08/08 06:07:47;;;;;;;14.45;9.23;;;16.70;46.10;;;;;;5055395;28;20400;-77
2022/08/08 06:10:14;;;;;;;14.00;8.40;;;16.80;46.00;;;;;;5054683;28;20386;-76
2022/08/08 06:12:41;;;;;;;12.70;9.60;;;16.80;45.50;;;;;;5055028;28;20405;-77
2022/08/08 06:15:09;;;;;;;11.95;8.55;;;16.90;45.70;;;;;;5056215;28;20381;-77
2022/08/08 06:17:37;;;;;;;14.57;8.40;;;17.00;43.30;;;;;;5056022;28;20384;-77
2022/08/08 06:20:06;;;;;;;13.65;9.23;;;17.00;42.20;;;;;;5054076;28;20408;-76
2022/08/08 06:22:31;;;;;;;12.77;8.35;;;17.00;42.70;;;;;;5054121;28;20385;-76
2022/08/08 06:24:57;;;;;;;14.68;9.30;;;17.10;43.10;;;;;;5053959;28;20443;-77
2022/08/08 06:27:55;;;;;;;11.00;8.33;;;17.20;42.10;;;;;;5056215;28;20385;-75
2022/08/08 06:30:21;;;;;;;12.65;8.73;;;17.20;43.20;;;;;;5051435;28;20833;-77
2022/08/08 06:32:56;;;;;;;13.93;8.00;;;17.20;42.90;;;;;;5053679;28;20496;-75
2022/08/08 06:35:22;;;;;;;13.05;8.57;;;17.30;42.50;;;;;;5051888;28;20385;-75
2022/08/08 06:37:54;;;;;;;16.17;8.85;;;17.40;42.30;;;;;;5053200;28;20469;-75
2022/08/08 06:40:22;;;;;;;14.45;8.85;;;17.50;42.20;;;;;;5053064;28;20373;-76
2022/08/08 06:42:55;;;;;;;18.15;9.35;;;17.60;41.30;;;;;;5052581;28;20583;-76
2022/08/08 06:45:22;;;;;;;12.23;8.60;;;17.80;39.80;;;;;;5051603;28;20408;-76
2022/08/08 06:47:48;;;;;;;13.88;7.90;;;17.90;38.70;;;;;;5052098;28;20401;-76
2022/08/08 06:50:14;;;;;;;11.50;8.50;;;18.00;37.90;;;;;;5052042;28;20446;-74
2022/08/08 06:52:41;;;;;;;12.18;7.97;;;18.10;37.40;;;;;;5051982;28;20807;-73
2022/08/08 06:55:07;;;;;;;14.57;9.43;;;18.20;37.00;;;;;;5048945;28;20487;-75
2022/08/08 06:57:34;;;;;;;12.02;8.02;;;18.30;36.10;;;;;;5052121;28;20408;-75
2022/08/08 07:00:03;;;;;;;12.52;8.20;;;18.40;36.80;;;;;;5051963;28;20527;-75
2022/08/08 07:02:32;;;;;;;13.10;9.50;;;18.40;35.90;;;;;;5052882;28;20480;-76
2022/08/08 07:05:12;;;;;;;14.75;8.38;;;18.30;36.10;;;;;;5052884;28;20398;-76
2022/08/08 07:08:00;;;;;;;10.68;8.50;;;18.20;36.80;;;;;;5051355;28;20417;-76
2022/08/08 07:10:32;;;;;;;12.80;8.35;;;18.30;36.80;;;;;;5072423;28;20401;-74
2022/08/08 07:13:06;;;;;;;15.50;9.30;;;18.40;36.30;;;;;;5071334;28;20397;-74
2022/08/08 07:15:37;;;;;;;16.92;10.05;;;18.50;36.30;;;;;;5052664;28;20500;-79
2022/08/08 07:18:08;;;;;;;19.73;9.32;;;18.50;35.30;;;;;;5056505;28;20786;-72
2022/08/08 07:20:41;;;;;;;16.23;9.13;;;18.70;35.10;;;;;;5050976;28;20762;-75
2022/08/08 07:23:14;;;;;;;14.50;8.50;;;18.90;34.30;;;;;;5032438;28;20421;-73
2022/08/08 07:25:43;;;;;;;15.10;8.75;;;19.00;34.00;;;;;;5049660;28;20787;-75
2022/08/08 07:28:11;;;;;;;15.30;8.60;;;19.20;33.60;;;;;;5073336;28;20376;-72
2022/08/08 07:30:39;;;;;;;12.02;8.20;;;19.40;32.10;;;;;;5062820;28;20882;-75
2022/08/08 07:33:05;;;;;;;11.77;8.13;;;19.50;31.70;;;;;;5052045;28;20400;-72
2022/08/08 07:35:31;;;;;;;15.60;8.80;;;19.50;30.80;;;;;;5048796;28;20572;-76
2022/08/08 07:37:57;;;;;;;16.20;8.82;;;19.50;31.40;;;;;;5052343;28;20401;-76
2022/08/08 07:40:24;;;;;;;13.35;8.05;;;19.50;31.50;;;;;;5052219;28;20464;-74
2022/08/08 07:42:52;;;;;;;16.55;8.00;;;19.60;30.40;;;;;;5051579;28;20594;-77
2022/08/08 07:45:19;;;;;;;12.35;8.00;;;19.80;30.50;;;;;;5051795;28;20748;-76
2022/08/08 07:47:45;;;;;;;13.82;8.30;;;19.90;30.20;;;;;;5052176;28;20389;-76
2022/08/08 07:50:11;;;;;;;12.15;8.30;;;20.00;28.90;;;;;;5051936;28;20392;-76
2022/08/08 07:52:49;;;;;;;12.70;8.27;;;20.00;28.50;;;;;;5050332;28;20401;-76
2022/08/08 07:55:29;;;;;;;13.23;7.32;;;20.10;29.00;;;;;;5051831;28;20388;-77
2022/08/08 07:58:03;;;;;;;14.15;7.70;;;20.30;28.90;;;;;;5051790;28;20387;-76
2022/08/08 08:00:40;;;;;;;8.77;7.05;;;20.50;27.70;;;;;;5051851;28;20474;-76
2022/08/08 08:03:11;;;;;;;12.40;7.05;;;20.60;26.90;;;;;;5050949;28;20730;-77
2022/08/08 08:05:41;;;;;;;9.35;7.00;;;20.60;26.90;;;;;;5055962;28;20835;-78
2022/08/08 08:08:16;;;;;;;12.20;7.50;;;20.60;26.10;;;;;;5059251;28;20420;-77
2022/08/08 08:10:44;;;;;;;12.20;7.55;;;20.70;25.30;;;;;;5059898;28;20702;-77
2022/08/08 08:13:35;;;;;;;11.70;6.85;;;20.70;25.20;;;;;;5059921;28;20948;-77
2022/08/08 08:16:06;;;;;;;14.73;6.95;;;20.80;24.30;;;;;;5058151;28;20393;-77
2022/08/08 08:18:38;;;;;;;12.88;7.00;;;20.80;23.90;;;;;;5059863;28;20392;-77
2022/08/08 08:21:05;;;;;;;12.98;7.10;;;20.80;23.80;;;;;;5059646;28;20774;-78
2022/08/08 08:23:30;;;;;;;9.80;6.43;;;20.90;23.80;;;;;;5059298;28;20381;-77
2022/08/08 08:25:56;;;;;;;11.68;6.35;;;21.10;22.70;;;;;;5059216;28;20392;-77
2022/08/08 08:28:23;;;;;;;11.45;6.05;;;21.10;21.50;;;;;;5060119;28;20392;-77
2022/08/08 08:30:48;;;;;;;11.40;6.00;;;21.10;21.80;;;;;;5060367;28;20389;-77
2022/08/08 08:33:14;;;;;;;9.80;6.20;;;21.30;22.00;;;;;;5059920;28;20798;-79
2022/08/08 08:35:40;;;;;;;10.17;6.50;;;21.40;21.70;;;;;;5073595;28;20397;-77
2022/08/08 08:38:05;;;;;;;11.27;5.70;;;21.50;22.20;;;;;;5073688;28;20469;-76
2022/08/08 08:40:32;;;;;;;9.13;5.75;;;21.70;20.20;;;;;;5061883;28;20393;-77
2022/08/08 08:42:58;;;;;;;11.25;5.68;;;21.80;20.10;;;;;;5059322;28;20397;-75
2022/08/08 08:45:24;;;;;;;12.30;6.32;;;21.80;19.60;;;;;;5058722;28;20969;-76
2022/08/08 08:47:52;;;;;;;14.40;7.00;;;21.80;20.70;;;;;;5058800;28;20432;-78
2022/08/08 08:50:17;;;;;;;11.30;5.65;;;21.80;19.90;;;;;;5057958;28;20392;-77
2022/08/08 08:52:45;;;;;;;14.55;6.43;;;21.80;19.80;;;;;;5057335;28;20813;-79
2022/08/08 08:55:14;;;;;;;12.13;5.82;;;22.00;19.50;;;;;;5055100;28;20385;-78
2022/08/08 08:57:42;;;;;;;10.82;6.45;;;22.10;19.40;;;;;;5059653;28;21113;-77
2022/08/08 09:00:09;;;;;;;12.90;6.40;;;22.30;20.30;;;;;;5056246;28;20393;-77
2022/08/08 09:02:36;;;;;;;10.70;6.53;;;22.30;20.00;;;;;;5055811;28;20397;-77
2022/08/08 09:05:06;;;;;;;15.50;6.60;;;22.40;19.10;;;;;;5056170;28;20401;-77
2022/08/08 09:07:33;;;;;;;15.98;6.18;;;22.40;18.60;;;;;;5056404;28;20381;-77
2022/08/08 09:10:00;;;;;;;11.05;6.47;;;22.50;18.50;;;;;;5055354;28;20460;-76
2022/08/08 09:12:27;;;;;;;9.98;6.00;;;22.40;18.70;;;;;;5056418;28;20866;-76
2022/08/08 09:14:55;;;;;;;11.60;6.05;;;22.50;18.40;;;;;;5058483;28;20427;-76
2022/08/08 09:17:23;;;;;;;9.77;5.50;;;22.60;18.30;;;;;;5061846;28;20385;-77
2022/08/08 09:19:58;;;;;;;11.57;4.90;;;22.60;18.20;;;;;;5062059;28;20433;-76
2022/08/08 09:22:24;;;;;;;9.60;5.70;;;22.80;18.20;;;;;;5059459;28;20758;-77
2022/08/08 09:24:52;;;;;;;12.70;5.60;;;22.90;17.10;;;;;;5059114;28;20381;-77
2022/08/08 09:27:19;;;;;;;10.98;5.60;;;22.90;17.30;;;;;;5057632;28;20385;-77
2022/08/08 09:29:57;;;;;;;10.53;5.30;;;22.90;17.40;;;;;;5056094;28;20408;-77
2022/08/08 09:32:47;;;;;;;8.30;5.68;;;22.80;17.10;;;;;;5058078;28;20401;-76
2022/08/08 09:35:15;;;;;;;8.30;5.07;;;22.90;17.00;;;;;;5057186;28;20424;-77
2022/08/08 09:37:54;;;;;;;10.80;5.32;;;22.90;16.90;;;;;;5058745;28;20374;-77
2022/08/08 09:40:22;;;;;;;9.10;5.30;;;22.90;16.50;;;;;;5059133;28;20734;-76
2022/08/08 09:42:57;;;;;;;10.35;5.43;;;22.90;16.90;;;;;;5060856;28;20389;-76
2022/08/08 09:45:44;;;;;;;10.18;5.43;;;22.80;17.10;;;;;;5062337;28;20392;-77
2022/08/08 09:48:10;;;;;;;7.68;4.70;;;23.00;16.50;;;;;;5059226;28;20396;-77
2022/08/08 09:50:36;;;;;;;8.27;4.70;;;23.10;16.70;;;;;;5074637;28;20385;-77
2022/08/08 09:53:05;;;;;;;8.47;4.70;;;23.20;15.10;;;;;;5059020;28;20480;-76
2022/08/08 09:55:30;;;;;;;7.70;5.30;;;23.30;14.20;;;;;;5058486;28;20405;-78
2022/08/08 09:58:05;;;;;;;10.48;5.65;;;23.20;14.40;;;;;;5068764;28;20726;-76
2022/08/08 10:00:34;;;;;;;8.10;4.90;;;23.20;15.50;;;;;;5075386;28;20358;-76
2022/08/08 10:03:02;;;;;;;9.50;5.13;;;23.20;15.70;;;;;;5070400;28;20388;-76
2022/08/08 10:05:34;;;;;;;8.75;5.22;;;23.30;15.80;;;;;;5059021;28;20802;-76
2022/08/08 10:08:00;;;;;;;11.65;5.32;;;23.30;15.30;;;;;;5058124;28;20757;-76
2022/08/08 10:10:40;;;;;;;6.57;4.70;;;23.40;14.80;;;;;;5058481;28;20484;-75
2022/08/08 10:13:19;;;;;;;7.32;5.35;;;23.50;15.20;;;;;;5062803;28;20439;-78
2022/08/08 10:15:49;;;;;;;10.60;5.40;;;23.40;15.10;;;;;;5065282;28;20396;-77
2022/08/08 10:18:32;;;;;;;6.90;4.57;;;23.30;14.60;;;;;;5067182;28;20464;-77
2022/08/08 10:21:08;;;;;;;8.40;5.40;;;23.40;15.20;;;;;;5059012;28;20854;-77
2022/08/08 10:23:34;;;;;;;9.55;5.82;;;23.40;14.90;;;;;;5058032;28;20497;-76
2022/08/08 10:26:02;;;;;;;8.05;5.30;;;23.50;14.70;;;;;;5058459;28;20492;-77
2022/08/08 10:28:30;;;;;;;9.45;4.78;;;23.60;14.50;;;;;;5058809;28;20742;-77
2022/08/08 10:32:30;;;;;;;9.30;5.50;;;23.70;14.30;;;;;;5058672;28;20423;-77
2022/08/08 10:33:49;;;;;;;10.20;5.18;;;23.70;14.00;;;;;;5061626;28;20472;-76
2022/08/08 10:36:16;;;;;;;6.43;4.68;;;23.70;14.00;;;;;;5061838;28;20389;-77
2022/08/08 10:38:43;;;;;;;10.00;4.30;;;24.00;13.60;;;;;;5059964;28;20382;-77
2022/08/08 10:41:16;;;;;;;5.43;4.47;;;24.10;12.70;;;;;;5057737;28;21045;-76
2022/08/08 10:43:48;;;;;;;8.00;5.00;;;24.00;13.00;;;;;;5058675;28;20799;-76
2022/08/08 10:46:25;;;;;;;10.15;4.95;;;23.90;13.00;;;;;;5060649;28;20386;-77
2022/08/08 10:48:54;;;;;;;7.82;5.00;;;24.00;12.70;;;;;;5060902;28;20772;-77
2022/08/08 10:51:22;;;;;;;8.65;4.43;;;24.00;12.70;;;;;;5063196;28;20409;-77
2022/08/08 10:53:49;;;;;;;8.40;5.00;;;24.20;12.50;;;;;;5062025;28;20382;-79
2022/08/08 10:56:16;;;;;;;6.55;4.65;;;24.20;12.40;;;;;;5058896;28;20794;-78
2022/08/08 10:58:41;;;;;;;9.77;4.70;;;24.30;12.40;;;;;;5056794;28;20785;-77
2022/08/08 11:01:08;;;;;;;7.78;4.63;;;24.30;12.40;;;;;;5055731;28;20394;-77
2022/08/08 11:03:41;;;;;;;10.40;4.90;;;24.20;12.40;;;;;;5056977;28;20389;-77
2022/08/08 11:06:07;;;;;;;6.50;4.80;;;24.40;12.10;;;;;;5058072;28;20408;-77
2022/08/08 11:08:35;;;;;;;6.90;4.10;;;24.50;12.00;;;;;;5056129;28;20393;-77
2022/08/08 11:11:10;;;;;;;7.40;4.90;;;24.50;11.60;;;;;;5056235;28;20391;-77
2022/08/08 11:13:41;;;;;;;6.60;4.20;;;24.50;11.10;;;;;;5057057;28;20456;-77
2022/08/08 11:16:08;;;;;;;9.98;4.88;;;24.50;11.40;;;;;;5057156;28;20394;-77
2022/08/08 11:18:35;;;;;;;7.50;4.70;;;24.50;10.60;;;;;;5057405;28;20381;-76
2022/08/08 11:21:02;;;;;;;9.05;4.30;;;24.50;11.20;;;;;;5053711;28;20429;-77
2022/08/08 11:23:32;;;;;;;5.45;3.65;;;24.40;10.60;;;;;;5068375;28;20403;-76
2022/08/08 11:26:02;;;;;;;6.50;4.63;;;24.40;10.60;;;;;;5070587;28;20441;-76
2022/08/08 11:28:33;;;;;;;10.05;5.20;;;24.40;10.40;;;;;;5064678;28;20735;-76
2022/08/08 11:31:00;;;;;;;7.30;4.50;;;24.40;10.50;;;;;;5056902;28;20389;-76
2022/08/08 11:33:26;;;;;;;8.05;4.25;;;24.60;9.80;;;;;;5056829;28;20388;-76
2022/08/08 11:35:53;;;;;;;10.18;5.13;;;24.80;10.30;;;;;;5055869;28;20858;-76
2022/08/08 11:38:19;;;;;;;7.20;4.70;;;24.80;10.30;;;;;;5054457;28;20386;-77
2022/08/08 11:40:45;;;;;;;8.13;4.95;;;24.80;10.80;;;;;;5055298;28;20388;-77
2022/08/08 11:43:12;;;;;;;9.15;5.40;;;24.80;10.40;;;;;;5054396;28;20412;-77
2022/08/08 11:45:41;;;;;;;7.90;4.50;;;24.90;10.00;;;;;;5055200;28;20385;-76
2022/08/08 11:48:06;;;;;;;8.50;5.50;;;24.90;10.20;;;;;;5054335;28;20385;-77
2022/08/08 11:50:32;;;;;;;8.40;5.28;;;24.80;10.20;;;;;;5054757;28;20420;-77
2022/08/08 11:52:59;;;;;;;12.35;5.00;;;24.80;10.50;;;;;;5056170;28;20754;-77
2022/08/08 11:55:27;;;;;;;8.30;4.90;;;24.90;10.10;;;;;;5059714;28;20388;-77
2022/08/08 11:58:05;;;;;;;6.50;4.63;;;25.10;10.00;;;;;;5057144;28;20443;-77
2022/08/08 12:00:31;;;;;;;7.18;4.80;;;25.40;9.50;;;;;;5055809;28;20412;-77
2022/08/08 12:02:59;;;;;;;8.25;5.00;;;25.30;9.50;;;;;;5054364;28;20457;-76
2022/08/08 12:05:36;;;;;;;9.13;4.80;;;25.20;8.80;;;;;;5056042;28;20493;-76
2022/08/08 12:08:02;;;;;;;6.72;4.55;;;25.10;9.60;;;;;;5061305;28;20735;-79
2022/08/08 12:10:29;;;;;;;4.57;4.00;;;25.30;9.40;;;;;;5060226;28;20385;-77
2022/08/08 12:13:06;;;;;;;7.65;4.60;;;25.20;10.20;;;;;;5053697;28;20408;-77
2022/08/08 12:15:34;;;;;;;7.87;4.40;;;25.30;9.10;;;;;;5052777;28;20411;-77
2022/08/08 12:18:11;;;;;;;8.38;5.07;;;25.20;9.80;;;;;;5052042;28;20386;-77
2022/08/08 12:20:38;;;;;;;6.38;4.72;;;25.40;8.90;;;;;;5054922;28;20490;-78
2022/08/08 12:23:04;;;;;;;9.73;5.15;;;25.60;8.40;;;;;;5053591;28;20381;-76
2022/08/08 12:25:32;;;;;;;5.95;4.65;;;25.60;8.40;;;;;;5054262;28;20433;-77
2022/08/08 12:28:14;;;;;;;5.80;3.80;;;25.60;8.90;;;;;;5053432;28;20464;-77
2022/08/08 12:30:42;;;;;;;10.17;4.43;;;25.40;9.10;;;;;;5052612;28;20389;-77
2022/08/08 12:33:24;;;;;;;7.45;4.20;;;25.50;9.20;;;;;;5053499;28;20524;-77
2022/08/08 12:35:50;;;;;;;9.93;4.67;;;25.70;8.70;;;;;;5053163;28;20487;-77
2022/08/08 12:38:16;;;;;;;7.00;4.60;;;25.70;8.50;;;;;;5055691;28;20409;-77
2022/08/08 12:40:47;;;;;;;6.50;3.97;;;25.80;8.40;;;;;;5053865;28;20384;-77
2022/08/08 12:43:14;;;;;;;6.82;4.70;;;25.70;8.50;;;;;;5053018;28;20386;-77
2022/08/08 12:45:45;;;;;;;5.97;5.10;;;25.50;9.30;;;;;;5051017;28;20396;-77
2022/08/08 12:48:19;;;;;;;7.28;5.30;;;25.40;9.50;;;;;;5058575;28;20468;-76
2022/08/08 12:50:47;;;;;;;6.53;4.70;;;25.50;9.70;;;;;;5055996;28;20887;-77
2022/08/08 12:53:26;;;;;;;7.22;4.30;;;25.60;9.50;;;;;;5053918;28;20409;-77
2022/08/08 12:55:55;;;;;;;9.00;4.80;;;25.60;9.20;;;;;;5052639;28;20378;-77
2022/08/08 12:58:22;;;;;;;7.82;4.50;;;25.60;9.30;;;;;;5054602;28;20743;-77
2022/08/08 13:00:49;;;;;;;6.10;4.72;;;25.70;9.60;;;;;;5053123;28;20443;-77
2022/08/08 13:03:26;;;;;;;6.57;5.07;;;25.60;10.30;;;;;;5053430;28;20393;-77
2022/08/08 13:06:12;;;;;;;7.18;4.40;;;25.60;9.70;;;;;;5054456;28;20816;-76
2022/08/08 13:08:49;;;;;;;6.38;4.70;;;25.70;10.80;;;;;;5053219;28;20440;-77
2022/08/08 13:11:31;;;;;;;9.17;4.50;;;25.50;10.50;;;;;;5052126;28;20420;-77
2022/08/08 13:13:56;;;;;;;10.63;4.90;;;25.40;10.80;;;;;;5052289;28;20847;-77
2022/08/08 13:16:23;;;;;;;8.23;4.50;;;25.50;10.00;;;;;;5052759;28;20636;-77
2022/08/08 13:18:49;;;;;;;7.75;4.20;;;25.60;10.50;;;;;;5052741;28;20499;-76